createdAt,value
2023-03-05T00:00:23.922Z,54.22
2023-03-05T00:02:51.199Z,49.92
2023-03-05T00:05:18.124Z,57.92
2023-03-05T00:07:44.899Z,65.25
2023-03-05T00:10:11.898Z,63.13
2023-03-05T00:12:38.663Z,66.50
2023-03-05T00:15:05.678Z,63.67
2023-03-05T00:17:32.445Z,61.33
2023-03-05T00:20:01.292Z,54.97
2023-03-05T00:22:28.913Z,53.10
2023-03-05T00:24:55.656Z,63.53
2023-03-05T00:27:22.328Z,58.50
2023-03-05T00:29:49.037Z,60.78
2023-03-05T00:32:15.865Z,50.30
2023-03-05T00:34:42.637Z,47.83
2023-03-05T00:37:09.419Z,49.03
2023-03-05T00:39:36.158Z,54.60
2023-03-05T00:42:04.079Z,54.90
2023-03-05T00:44:30.828Z,50.17
2023-03-05T00:46:57.668Z,48.92
2023-03-05T00:49:24.473Z,47.08
2023-03-05T00:51:51.468Z,55.50
2023-03-05T00:54:18.240Z,53.38
2023-03-05T00:56:45.083Z,48.30
2023-03-05T00:59:11.989Z,44.00
2023-03-05T01:01:39.507Z,49.35
2023-03-05T01:04:06.495Z,51.67
2023-03-05T01:06:33.275Z,49.97
2023-03-05T01:08:59.974Z,58.58
2023-03-05T01:11:26.702Z,62.03
2023-03-05T01:13:53.437Z,60.55
2023-03-05T01:16:20.281Z,49.40
2023-03-05T01:18:47.010Z,55.20
2023-03-05T01:21:13.847Z,52.40
2023-03-05T01:23:40.514Z,47.38
2023-03-05T01:26:08.541Z,50.47
2023-03-05T01:28:35.435Z,56.92
2023-03-05T01:31:02.263Z,49.92
2023-03-05T01:33:29.229Z,49.05
2023-03-05T01:35:56.673Z,51.17
2023-03-05T01:38:23.669Z,49.72
2023-03-05T01:40:51.035Z,43.30
2023-03-05T01:43:25.459Z,52.80
2023-03-05T01:46:11.006Z,45.40
2023-03-05T01:48:38.338Z,37.95
2023-03-05T01:51:05.367Z,55.63
2023-03-05T01:53:33.050Z,45.08
2023-03-05T01:55:59.922Z,44.88
2023-03-05T01:58:26.929Z,50.75
2023-03-05T02:00:55.168Z,49.95
2023-03-05T02:03:23.148Z,55.22
2023-03-05T02:05:50.243Z,50.03
2023-03-05T02:08:18.405Z,48.78
2023-03-05T02:10:46.680Z,50.70
2023-03-05T02:13:14.781Z,64.68
2023-03-05T02:15:42.041Z,53.33
2023-03-05T02:18:09.885Z,51.20
2023-03-05T02:20:44.245Z,49.63
2023-03-05T02:23:11.083Z,45.28
2023-03-05T02:25:37.851Z,34.75
2023-03-05T02:28:09.365Z,51.60
2023-03-05T02:30:37.439Z,37.58
2023-03-05T02:33:04.808Z,36.15
2023-03-05T02:35:32.729Z,39.13
2023-03-05T02:37:59.894Z,37.72
2023-03-05T02:40:26.707Z,36.03
2023-03-05T02:42:53.521Z,42.55
2023-03-05T02:45:20.549Z,37.25
2023-03-05T02:47:47.393Z,37.33
2023-03-05T02:50:14.962Z,39.38
2023-03-05T02:52:42.000Z,29.90
2023-03-05T02:55:13.219Z,30.50
2023-03-05T02:57:40.932Z,34.63
2023-03-05T03:00:08.548Z,40.65
2023-03-05T03:02:35.905Z,26.33
2023-03-05T03:05:02.993Z,27.35
2023-03-05T03:07:29.973Z,31.55
2023-03-05T03:09:56.772Z,33.70
2023-03-05T03:12:23.477Z,30.35
2023-03-05T03:14:50.583Z,27.33
2023-03-05T03:17:18.999Z,36.65
2023-03-05T03:19:46.154Z,34.78
2023-03-05T03:22:13.603Z,32.35
2023-03-05T03:24:41.328Z,44.97
2023-03-05T03:27:08.293Z,47.75
2023-03-05T03:29:35.612Z,50.35
2023-03-05T03:32:02.374Z,46.65
2023-03-05T03:34:29.128Z,47.50
2023-03-05T03:36:59.332Z,49.65
2023-03-05T03:39:26.543Z,43.85
2023-03-05T03:41:53.633Z,51.33
2023-03-05T03:44:21.412Z,37.38
2023-03-05T03:46:50.072Z,36.50
2023-03-05T03:49:19.217Z,39.97
2023-03-05T03:51:46.394Z,37.75
2023-03-05T03:54:13.836Z,39.78
2023-03-05T03:56:40.656Z,34.42
2023-03-05T03:59:07.587Z,38.47
2023-03-05T04:01:34.253Z,34.03
2023-03-05T04:04:01.146Z,36.38
2023-03-05T04:06:27.930Z,38.67
2023-03-05T04:08:54.794Z,30.65
2023-03-05T04:11:21.605Z,30.58
2023-03-05T04:13:48.706Z,34.33
2023-03-05T04:16:15.818Z,30.80
2023-03-05T04:18:43.126Z,41.83
2023-03-05T04:21:09.919Z,34.00
2023-03-05T04:23:36.792Z,33.60
2023-03-05T04:26:04.105Z,34.78
2023-03-05T04:28:31.018Z,37.72
2023-03-05T04:30:57.928Z,29.13
2023-03-05T04:33:24.805Z,33.95
2023-03-05T04:35:51.794Z,38.28
2023-03-05T04:38:18.551Z,27.92
2023-03-05T04:40:45.885Z,30.48
2023-03-05T04:43:12.682Z,26.35
2023-03-05T04:45:40.335Z,32.25
2023-03-05T04:48:07.355Z,44.47
2023-03-05T04:50:34.070Z,33.38
2023-03-05T04:53:00.789Z,31.08
2023-03-05T04:55:27.539Z,28.27
2023-03-05T04:57:54.333Z,30.95
2023-03-05T05:00:21.806Z,30.52
2023-03-05T05:02:49.494Z,39.28
2023-03-05T05:05:17.577Z,29.17
2023-03-05T05:07:44.918Z,35.78
2023-03-05T05:10:12.667Z,30.08
2023-03-05T05:12:42.459Z,27.95
2023-03-05T05:15:09.968Z,28.08
2023-03-05T05:17:36.743Z,30.10
2023-03-05T05:20:06.631Z,30.50
2023-03-05T05:22:34.014Z,26.73
2023-03-05T05:25:00.930Z,27.73
2023-03-05T05:27:27.820Z,27.63
2023-03-05T05:29:54.586Z,31.63
2023-03-05T05:32:22.514Z,31.85
2023-03-05T05:34:49.921Z,29.10
2023-03-05T05:37:16.711Z,27.67
2023-03-05T05:39:50.067Z,30.50
2023-03-05T05:42:18.424Z,29.38
2023-03-05T05:44:45.223Z,33.25
2023-03-05T05:47:12.014Z,38.38
2023-03-05T05:49:38.777Z,32.78
2023-03-05T05:52:05.713Z,37.45
2023-03-05T05:54:32.483Z,38.83
2023-03-05T05:56:59.494Z,36.08
2023-03-05T05:59:26.803Z,39.30
2023-03-05T06:01:53.796Z,39.28
2023-03-05T06:04:20.748Z,46.30
2023-03-05T06:06:47.482Z,35.70
2023-03-05T06:09:14.984Z,33.50
2023-03-05T06:11:42.300Z,44.67
2023-03-05T06:14:10.754Z,31.13
2023-03-05T06:16:37.575Z,39.10
2023-03-05T06:19:04.749Z,35.40
2023-03-05T06:21:32.027Z,33.40
2023-03-05T06:23:58.834Z,38.42
2023-03-05T06:26:25.796Z,30.65
2023-03-05T06:28:52.597Z,34.08
2023-03-05T06:31:22.080Z,22.52
2023-03-05T06:33:49.469Z,23.85
2023-03-05T06:36:17.434Z,34.65
2023-03-05T06:38:44.582Z,30.77
2023-03-05T06:41:13.157Z,29.25
2023-03-05T06:43:41.492Z,34.10
2023-03-05T06:46:16.752Z,33.33
2023-03-05T06:48:43.981Z,30.35
2023-03-05T06:51:18.845Z,42.35
2023-03-05T06:53:48.980Z,41.05
2023-03-05T06:56:16.889Z,51.17
2023-03-05T06:58:46.175Z,50.30
2023-03-05T07:01:14.514Z,36.58
2023-03-05T07:03:42.765Z,31.42
2023-03-05T07:06:11.235Z,29.38
2023-03-05T07:08:39.100Z,30.13
2023-03-05T07:11:13.118Z,45.28
2023-03-05T07:13:40.167Z,31.10
2023-03-05T07:16:08.055Z,29.83
2023-03-05T07:18:35.351Z,26.42
2023-03-05T07:21:06.236Z,36.55
2023-03-05T07:23:34.090Z,30.60
2023-03-05T07:26:04.728Z,38.83
2023-03-05T07:28:32.253Z,42.13
2023-03-05T07:31:00.640Z,34.38
2023-03-05T07:33:28.400Z,60.10
2023-03-05T07:35:55.998Z,49.45
2023-03-05T07:39:33.555Z,59.75
2023-03-05T07:49:28.662Z,58.17
2023-03-05T08:04:54.671Z,64.43
2023-03-05T08:22:00.668Z,60.50
2023-03-05T08:24:31.616Z,69.43
2023-03-05T08:26:58.901Z,58.50
2023-03-05T08:29:26.327Z,60.03
2023-03-05T08:31:53.729Z,63.55
2023-03-05T08:34:21.300Z,68.80
2023-03-05T08:36:48.172Z,65.68
2023-03-05T08:39:16.511Z,71.82
2023-03-05T08:41:43.608Z,72.40
2023-03-05T08:44:11.092Z,71.15
2023-03-05T08:46:44.404Z,65.53
2023-03-05T08:49:41.289Z,72.13
2023-03-05T09:16:11.485Z,75.47
2023-03-05T09:18:40.201Z,78.18
2023-03-05T09:21:08.146Z,82.25
2023-03-05T09:23:35.756Z,101.80
2023-03-05T09:26:05.220Z,80.43
2023-03-05T09:28:32.610Z,80.68
2023-03-05T09:31:02.186Z,80.25
2023-03-05T09:33:29.396Z,77.00
2023-03-05T09:35:56.355Z,77.57
2023-03-05T09:38:23.434Z,74.53
2023-03-05T09:40:56.618Z,73.07
2023-03-05T09:43:29.011Z,78.80
2023-03-05T09:46:05.677Z,75.35
2023-03-05T09:48:33.199Z,66.97
2023-03-05T09:51:02.037Z,67.32
2023-03-05T09:53:47.510Z,61.17
2023-03-05T09:56:22.596Z,59.47
2023-03-05T09:58:53.637Z,54.47
2023-03-05T10:01:27.143Z,55.13
2023-03-05T10:03:54.851Z,51.53
2023-03-05T10:06:30.863Z,49.10
2023-03-05T10:09:02.236Z,51.88
2023-03-05T10:11:35.399Z,44.70
2023-03-05T10:14:03.986Z,56.33
2023-03-05T10:17:01.892Z,51.20
2023-03-05T10:19:38.380Z,46.60
2023-03-05T10:22:32.376Z,60.58
2023-03-05T10:25:11.498Z,51.67
2023-03-05T10:27:52.574Z,48.53
2023-03-05T10:35:18.636Z,53.97
2023-03-05T10:39:40.201Z,50.78
2023-03-05T10:43:12.396Z,50.35
2023-03-05T10:45:41.826Z,49.22
2023-03-05T10:48:15.674Z,51.03
2023-03-05T10:50:44.791Z,47.40
2023-03-05T10:53:30.096Z,45.72
2023-03-05T10:56:00.817Z,44.45
2023-03-05T10:58:28.586Z,40.88
2023-03-05T11:01:11.144Z,46.10
2023-03-05T11:03:52.467Z,41.97
2023-03-05T11:06:29.954Z,41.38
2023-03-05T11:09:14.940Z,49.33
2023-03-05T11:11:41.941Z,46.72
2023-03-05T11:14:23.982Z,49.35
2023-03-05T11:16:52.547Z,49.53
2023-03-05T11:19:20.831Z,53.53
2023-03-05T11:22:05.623Z,46.05
2023-03-05T11:24:33.817Z,44.53
2023-03-05T11:27:00.930Z,46.50
2023-03-05T11:29:30.199Z,46.97
2023-03-05T11:32:15.114Z,50.15
2023-03-05T11:34:42.343Z,55.42
2023-03-05T11:37:20.614Z,57.90
2023-03-05T11:39:48.954Z,50.45
2023-03-05T11:42:25.048Z,45.88
2023-03-05T11:45:12.919Z,50.88
2023-03-05T11:47:44.236Z,50.55
2023-03-05T11:50:30.920Z,56.45
2023-03-05T11:53:00.769Z,56.13
2023-03-05T11:55:33.241Z,46.22
2023-03-05T11:58:09.852Z,50.83
2023-03-05T12:00:43.223Z,57.08
2023-03-05T12:03:19.095Z,61.17
2023-03-05T12:05:50.690Z,60.03
2023-03-05T12:08:21.661Z,64.63
2023-03-05T12:10:48.851Z,65.13
2023-03-05T12:13:29.020Z,59.40
2023-03-05T12:16:03.246Z,67.10
2023-03-05T12:18:38.263Z,68.57
2023-03-05T12:21:15.722Z,68.55
2023-03-05T12:23:47.510Z,72.38
2023-03-05T12:26:14.640Z,73.32
2023-03-05T12:28:49.956Z,84.13
2023-03-05T12:31:38.099Z,77.43
2023-03-05T12:34:31.432Z,81.28
2023-03-05T12:36:58.596Z,74.47
2023-03-05T12:39:45.024Z,74.80
2023-03-05T12:42:44.986Z,70.22
2023-03-05T12:45:12.372Z,68.43
2023-03-05T12:47:40.637Z,74.78
2023-03-05T12:50:26.365Z,73.55
2023-03-05T12:53:23.928Z,71.90
2023-03-05T12:56:00.526Z,76.90
2023-03-05T12:58:51.814Z,73.50
2023-03-05T13:01:34.162Z,66.65
2023-03-05T13:04:11.201Z,65.22
2023-03-05T13:06:38.965Z,67.32
2023-03-05T13:09:19.461Z,69.03
2023-03-05T13:12:23.579Z,70.71
2023-03-05T13:15:14.422Z,63.97
2023-03-05T13:17:44.771Z,66.05
2023-03-05T13:20:25.926Z,74.68
2023-03-05T13:23:08.279Z,70.43
2023-03-05T13:25:37.668Z,73.72
2023-03-05T13:28:14.495Z,63.95
2023-03-05T13:30:54.965Z,69.75
2023-03-05T13:33:35.751Z,74.00
2023-03-05T13:36:04.031Z,65.75
2023-03-05T13:38:40.406Z,64.15
2023-03-05T13:41:16.880Z,75.75
2023-03-05T13:43:50.679Z,68.93
2023-03-05T13:46:25.103Z,72.30
2023-03-05T13:49:23.749Z,67.70
2023-03-05T13:51:53.546Z,64.18
2023-03-05T13:54:21.293Z,57.20
2023-03-05T13:57:02.969Z,68.38
2023-03-05T13:59:33.716Z,60.65
2023-03-05T14:02:23.951Z,66.22
2023-03-05T14:04:50.947Z,64.72
2023-03-05T14:07:18.508Z,57.13
2023-03-05T14:09:50.481Z,59.92
2023-03-05T14:12:32.796Z,56.25
2023-03-05T14:15:03.583Z,61.47
2023-03-05T14:17:32.949Z,67.25
2023-03-05T14:20:07.908Z,62.72
2023-03-05T14:22:36.248Z,67.28
2023-03-05T14:25:06.748Z,61.08
2023-03-05T14:27:35.736Z,64.70
2023-03-05T14:30:04.599Z,65.28
2023-03-05T14:32:33.328Z,64.00
2023-03-05T14:35:01.343Z,66.15
2023-03-05T14:37:31.405Z,60.78
2023-03-05T14:40:08.261Z,54.85
2023-03-05T14:42:50.538Z,62.00
2023-03-05T14:45:19.522Z,55.25
2023-03-05T14:47:46.713Z,67.75
2023-03-05T14:50:17.567Z,63.22
2023-03-05T14:52:45.284Z,59.33
2023-03-05T14:55:19.912Z,55.95
2023-03-05T14:57:47.813Z,60.60
2023-03-05T15:00:19.919Z,57.90
2023-03-05T15:02:47.203Z,61.00
2023-03-05T15:05:14.744Z,59.50
2023-03-05T15:07:42.048Z,61.10
2023-03-05T15:10:09.346Z,63.17
2023-03-05T15:12:36.485Z,62.42
2023-03-05T15:15:05.381Z,58.47
2023-03-05T15:17:35.237Z,56.78
2023-03-05T15:20:06.174Z,58.28
2023-03-05T15:22:33.723Z,57.15
2023-03-05T15:25:01.239Z,66.28
2023-03-05T15:27:28.321Z,62.95
2023-03-05T15:29:55.466Z,58.00
2023-03-05T15:32:22.429Z,58.15
2023-03-05T15:34:49.364Z,57.05
2023-03-05T15:37:16.449Z,57.45
2023-03-05T15:39:43.398Z,60.25
2023-03-05T15:42:10.301Z,60.67
2023-03-05T15:44:39.285Z,53.67
2023-03-05T15:47:07.036Z,58.42
2023-03-05T15:49:34.245Z,59.65
2023-03-05T15:52:01.373Z,58.45
2023-03-05T15:54:28.462Z,53.47
2023-03-05T15:56:55.534Z,50.78
2023-03-05T15:59:49.284Z,55.85
2023-03-05T16:02:16.474Z,56.17
2023-03-05T16:04:43.401Z,49.72
2023-03-05T16:07:10.358Z,55.78
2023-03-05T16:09:39.183Z,57.75
2023-03-05T16:12:08.584Z,54.38
2023-03-05T16:14:38.498Z,50.03
2023-03-05T16:17:06.293Z,53.35
2023-03-05T16:19:35.382Z,57.92
2023-03-05T16:22:02.523Z,56.13
2023-03-05T16:24:29.793Z,51.63
2023-03-05T16:26:57.011Z,54.67
2023-03-05T16:29:26.137Z,59.70
2023-03-05T16:31:53.072Z,59.80
2023-03-05T16:34:20.368Z,57.80
2023-03-05T16:36:49.082Z,55.88
2023-03-05T16:39:16.589Z,65.78
2023-03-05T16:41:44.241Z,58.58
2023-03-05T16:44:11.647Z,57.58
2023-03-05T16:46:41.456Z,61.20
2023-03-05T16:49:08.826Z,54.35
2023-03-05T16:51:36.120Z,55.40
2023-03-05T16:54:03.669Z,55.42
2023-03-05T16:56:30.716Z,73.18
2023-03-05T16:58:58.047Z,71.82
2023-03-05T17:01:25.764Z,66.95
2023-03-05T17:03:53.707Z,66.82
2023-03-05T17:06:22.598Z,64.35
2023-03-05T17:08:50.717Z,72.25
2023-03-05T17:11:17.849Z,75.82
2023-03-05T17:13:48.314Z,64.75
2023-03-05T17:16:16.989Z,65.13
2023-03-05T17:18:43.956Z,70.93
2023-03-05T17:21:11.657Z,64.63
2023-03-05T17:23:39.506Z,60.55
2023-03-05T17:26:13.986Z,63.33
2023-03-05T17:28:41.263Z,68.78
2023-03-05T17:31:08.656Z,74.65
2023-03-05T17:33:36.313Z,60.00
2023-03-05T17:36:03.622Z,64.28
2023-03-05T17:38:31.050Z,67.40
2023-03-05T17:40:57.956Z,66.78
2023-03-05T17:43:25.091Z,57.00
2023-03-05T17:45:52.388Z,58.35
2023-03-05T17:48:19.429Z,66.18
2023-03-05T17:50:46.523Z,96.30
2023-03-05T17:53:13.646Z,68.05
2023-03-05T17:55:40.742Z,74.28
2023-03-05T17:58:08.159Z,62.92
2023-03-05T18:00:35.861Z,73.30
2023-03-05T18:03:03.652Z,64.22
2023-03-05T18:05:30.638Z,70.32
2023-03-05T18:07:58.952Z,72.88
2023-03-05T18:10:26.499Z,65.20
2023-03-05T18:12:53.914Z,86.68
2023-03-05T18:15:21.856Z,94.68
2023-03-05T18:17:48.789Z,73.90
2023-03-05T18:20:36.211Z,73.35
2023-03-05T18:23:04.733Z,83.60
2023-03-05T18:25:32.135Z,65.66
2023-03-05T18:28:17.937Z,86.55
2023-03-05T18:30:45.874Z,76.38
2023-03-05T18:33:19.248Z,78.95
2023-03-05T18:35:46.735Z,81.90
2023-03-05T18:38:15.192Z,96.68
2023-03-05T18:40:42.882Z,88.72
2023-03-05T18:43:09.884Z,82.70
2023-03-05T18:45:37.487Z,90.30
2023-03-05T18:48:04.735Z,81.97
2023-03-05T18:50:34.286Z,89.40
2023-03-05T18:53:01.545Z,79.50
2023-03-05T18:55:29.586Z,82.68
2023-03-05T18:57:57.724Z,83.50
2023-03-05T19:00:29.111Z,86.75
2023-03-05T19:02:57.066Z,94.25
2023-03-05T19:05:26.178Z,84.00
2023-03-05T19:07:53.828Z,97.55
2023-03-05T19:10:22.701Z,85.90
2023-03-05T19:13:27.470Z,78.20
2023-03-05T19:16:07.225Z,98.05
2023-03-05T19:19:13.041Z,116.97
2023-03-05T19:21:40.512Z,94.05
2023-03-05T19:24:07.709Z,94.05
2023-03-05T19:26:34.963Z,84.72
2023-03-05T19:29:02.360Z,82.47
2023-03-05T19:31:29.544Z,76.55
2023-03-05T19:33:56.593Z,70.70
2023-03-05T19:36:23.709Z,72.80
2023-03-05T19:38:50.489Z,74.05
2023-03-05T19:41:19.436Z,87.82
2023-03-05T19:43:47.382Z,78.90
2023-03-05T19:46:14.850Z,77.28
2023-03-05T19:48:42.520Z,83.28
2023-03-05T19:51:11.541Z,85.05
2023-03-05T19:53:39.530Z,80.03
2023-03-05T19:56:07.217Z,78.20
2023-03-05T19:58:35.356Z,78.53
2023-03-05T20:01:09.339Z,80.85
2023-03-05T20:03:42.479Z,85.70
2023-03-05T20:06:13.348Z,83.32
2023-03-05T20:08:46.887Z,87.47
2023-03-05T20:11:37.624Z,99.32
2023-03-05T20:14:08.396Z,79.53
2023-03-05T20:16:40.954Z,87.70
2023-03-05T20:19:19.299Z,82.30
2023-03-05T20:21:48.428Z,88.72
2023-03-05T20:24:23.831Z,82.22
2023-03-05T20:26:56.191Z,89.63
2023-03-05T20:29:27.366Z,98.97
2023-03-05T20:31:57.278Z,82.63
2023-03-05T20:34:27.234Z,80.53
2023-03-05T20:36:58.394Z,74.97
2023-03-05T20:39:28.084Z,85.25
2023-03-05T20:42:00.714Z,84.53
2023-03-05T20:44:37.605Z,84.18
2023-03-05T20:47:46.146Z,77.45
2023-03-05T20:50:17.287Z,72.45
2023-03-05T20:52:49.749Z,65.00
2023-03-05T20:55:28.162Z,62.95
2023-03-05T20:58:14.841Z,65.63
2023-03-05T21:00:44.957Z,58.85
2023-03-05T21:03:12.828Z,61.03
2023-03-05T21:05:49.400Z,64.18
2023-03-05T21:08:21.722Z,60.00
2023-03-05T21:10:51.816Z,58.97
2023-03-05T21:13:24.840Z,54.97
2023-03-05T21:15:52.242Z,52.38
2023-03-05T21:18:22.720Z,45.17
2023-03-05T21:20:51.828Z,48.38
2023-03-05T21:23:32.329Z,49.10
2023-03-05T21:26:02.580Z,41.00
2023-03-05T21:28:33.629Z,40.90
2023-03-05T21:31:09.439Z,52.85
2023-03-05T21:33:45.281Z,44.22
2023-03-05T21:36:15.346Z,62.22
2023-03-05T21:39:01.839Z,54.33
2023-03-05T21:42:06.670Z,67.70
2023-03-05T21:44:41.842Z,59.17
2023-03-05T21:47:11.658Z,57.33
2023-03-05T21:49:46.174Z,80.65
2023-03-05T21:52:15.877Z,56.70
2023-03-05T21:54:45.103Z,59.95
2023-03-05T21:57:14.554Z,70.18
2023-03-05T21:59:45.585Z,51.92
2023-03-05T22:02:23.569Z,51.00
2023-03-05T22:05:06.399Z,47.28
2023-03-05T22:07:41.157Z,55.85
2023-03-05T22:10:16.828Z,54.25
2023-03-05T22:13:10.789Z,70.47
2023-03-05T22:15:52.409Z,49.50
2023-03-05T22:18:23.217Z,59.78
2023-03-05T22:20:50.478Z,45.42
2023-03-05T22:23:19.746Z,53.95
2023-03-05T22:25:57.710Z,58.95
2023-03-05T22:28:29.528Z,63.92
2023-03-05T22:30:56.712Z,67.28
2023-03-05T22:33:35.288Z,60.17
2023-03-05T22:36:11.211Z,63.95
2023-03-05T22:38:44.036Z,49.30
2023-03-05T22:41:17.159Z,71.22
2023-03-05T22:43:50.799Z,52.13
2023-03-05T22:46:28.373Z,61.35
2023-03-05T22:48:58.150Z,50.83
2023-03-05T22:51:30.596Z,54.85
2023-03-05T22:54:03.573Z,57.90
2023-03-05T22:56:37.358Z,61.00
2023-03-05T22:59:17.860Z,54.70
2023-03-05T23:01:50.828Z,57.05
2023-03-05T23:04:44.588Z,61.58
2023-03-05T23:07:17.073Z,53.33
2023-03-05T23:09:55.444Z,55.40
2023-03-05T23:12:31.036Z,56.60
2023-03-05T23:15:14.641Z,53.80
2023-03-05T23:17:44.540Z,52.10
2023-03-05T23:20:17.035Z,50.28
2023-03-05T23:22:45.681Z,54.60
2023-03-05T23:25:20.976Z,46.78
2023-03-05T23:27:53.282Z,55.47
2023-03-05T23:30:29.170Z,56.85
2023-03-05T23:33:00.275Z,47.92
2023-03-05T23:35:45.592Z,44.88
2023-03-05T23:38:19.589Z,60.55
2023-03-05T23:43:24.465Z,41.80
2023-03-05T23:45:57.827Z,44.92
2023-03-05T23:48:36.632Z,46.65
2023-03-05T23:51:10.363Z,53.95
2023-03-05T23:53:44.529Z,51.88
2023-03-05T23:56:11.876Z,52.17
2023-03-05T23:59:02.899Z,46.17
